createdAt,value
2024-03-20T00:00:31.699Z,4.3
2024-03-20T00:01:47.986Z,4.2
2024-03-20T00:03:04.281Z,4.3
2024-03-20T00:04:20.552Z,4.3
2024-03-20T00:05:36.880Z,4.3
2024-03-20T00:06:53.147Z,4.3
2024-03-20T00:08:09.472Z,4.3
2024-03-20T00:09:25.732Z,4.2
2024-03-20T00:10:42.049Z,4.2
2024-03-20T00:11:58.317Z,4.2
2024-03-20T00:13:14.633Z,4.2
2024-03-20T00:14:30.912Z,4.1
2024-03-20T00:15:47.213Z,4.1
2024-03-20T00:17:02.539Z,4.1
2024-03-20T00:18:18.806Z,4.1
2024-03-20T00:19:35.108Z,4
2024-03-20T00:20:51.421Z,3.9
2024-03-20T00:22:07.705Z,3.9
2024-03-20T00:23:24.006Z,3.9
2024-03-20T00:24:40.313Z,3.9
2024-03-20T00:25:56.597Z,3.9
2024-03-20T00:27:12.874Z,3.9
2024-03-20T00:28:29.172Z,3.9
2024-03-20T00:29:45.474Z,3.9
2024-03-20T00:31:01.770Z,3.9
2024-03-20T00:32:18.079Z,3.9
2024-03-20T00:33:33.377Z,3.9
2024-03-20T00:34:49.682Z,4
2024-03-20T00:36:05.951Z,3.9
2024-03-20T00:37:22.242Z,4
2024-03-20T00:38:38.551Z,4
2024-03-20T00:39:54.833Z,4
2024-03-20T00:41:11.127Z,4
2024-03-20T00:42:27.445Z,4
2024-03-20T00:43:43.740Z,4
2024-03-20T00:45:00.021Z,4
2024-03-20T00:46:16.306Z,4
2024-03-20T00:47:32.623Z,4
2024-03-20T00:48:48.894Z,3.9
2024-03-20T00:50:04.202Z,3.9
2024-03-20T00:51:20.524Z,3.9
2024-03-20T00:52:36.820Z,3.9
2024-03-20T00:53:53.093Z,3.9
2024-03-20T00:55:09.407Z,3.9
2024-03-20T00:56:25.709Z,3.9
2024-03-20T00:57:41.992Z,4
2024-03-20T00:58:58.267Z,4
2024-03-20T01:00:14.572Z,4.1
2024-03-20T01:01:30.854Z,4.1
2024-03-20T01:02:47.169Z,4.1
2024-03-20T01:04:03.441Z,4.1
2024-03-20T01:05:19.772Z,4.1
2024-03-20T01:06:36.169Z,4.1
2024-03-20T01:07:52.461Z,4.1
2024-03-20T01:09:08.744Z,4.1
2024-03-20T01:10:25.037Z,4.1
2024-03-20T01:11:41.355Z,4.1
2024-03-20T01:12:57.640Z,4.1
2024-03-20T01:14:13.958Z,4.1
2024-03-20T01:15:30.224Z,4.1
2024-03-20T01:16:46.518Z,4.1
2024-03-20T01:18:02.830Z,4.1
2024-03-20T01:19:19.100Z,4.1
2024-03-20T01:20:35.393Z,4.2
2024-03-20T01:21:51.726Z,4.2
2024-03-20T01:23:07.006Z,4.2
2024-03-20T01:24:23.326Z,4.2
2024-03-20T01:25:39.590Z,4.2
2024-03-20T01:26:55.920Z,4.3
2024-03-20T01:28:12.195Z,4.3
2024-03-20T01:29:28.498Z,4.3
2024-03-20T01:30:44.770Z,4.3
2024-03-20T01:32:01.073Z,4.3
2024-03-20T01:33:17.361Z,4.4
2024-03-20T01:34:33.663Z,4.4
2024-03-20T01:35:49.957Z,4.4
2024-03-20T01:37:06.249Z,4.4
2024-03-20T01:38:22.538Z,4.4
2024-03-20T01:39:37.858Z,4.4
2024-03-20T01:40:54.165Z,4.4
2024-03-20T01:42:10.441Z,4.4
2024-03-20T01:43:26.745Z,4.5
2024-03-20T01:44:43.039Z,4.4
2024-03-20T01:45:59.317Z,4.5
2024-03-20T01:47:15.618Z,4.5
2024-03-20T01:48:31.915Z,4.5
2024-03-20T01:49:48.203Z,4.5
2024-03-20T01:51:04.525Z,4.6
2024-03-20T01:52:20.823Z,4.6
2024-03-20T01:53:37.104Z,4.6
2024-03-20T01:54:53.383Z,4.6
2024-03-20T01:56:08.696Z,4.6
2024-03-20T01:57:25.026Z,4.6
2024-03-20T01:58:41.293Z,4.6
2024-03-20T01:59:57.573Z,4.6
2024-03-20T02:01:13.888Z,4.5
2024-03-20T02:02:30.176Z,4.5
2024-03-20T02:03:46.499Z,4.5
2024-03-20T02:05:02.782Z,4.4
2024-03-20T02:06:19.050Z,4.4
2024-03-20T02:07:35.368Z,4.4
2024-03-20T02:08:51.648Z,4.3
2024-03-20T02:10:07.930Z,4.3
2024-03-20T02:11:24.230Z,4.3
2024-03-20T02:12:39.547Z,4.2
2024-03-20T02:13:55.835Z,4.2
2024-03-20T02:15:12.169Z,4.2
2024-03-20T02:16:28.448Z,4.2
2024-03-20T02:17:44.725Z,4.1
2024-03-20T02:19:01.037Z,4.1
2024-03-20T02:20:17.332Z,4.1
2024-03-20T02:21:33.602Z,4
2024-03-20T02:22:49.907Z,4
2024-03-20T02:24:06.198Z,4
2024-03-20T02:25:22.508Z,3.9
2024-03-20T02:26:38.784Z,3.9
2024-03-20T02:27:55.077Z,3.9
2024-03-20T02:29:10.388Z,3.9
2024-03-20T02:30:26.712Z,3.8
2024-03-20T02:31:42.978Z,3.8
2024-03-20T02:32:59.297Z,3.8
2024-03-20T02:34:15.564Z,3.8
2024-03-20T02:35:31.872Z,3.8
2024-03-20T02:36:48.164Z,3.8
2024-03-20T02:38:04.460Z,3.8
2024-03-20T02:39:20.739Z,3.8
2024-03-20T02:40:37.048Z,3.8
2024-03-20T02:41:53.331Z,3.8
2024-03-20T02:43:09.661Z,3.8
2024-03-20T02:44:25.958Z,3.7
2024-03-20T02:45:41.273Z,3.8
2024-03-20T02:46:57.541Z,3.8
2024-03-20T02:48:13.849Z,3.8
2024-03-20T02:49:30.141Z,3.8
2024-03-20T02:50:46.434Z,3.8
2024-03-20T02:52:02.732Z,3.8
2024-03-20T02:53:19.037Z,3.7
2024-03-20T02:54:35.304Z,3.7
2024-03-20T02:55:51.614Z,3.7
2024-03-20T02:57:07.917Z,3.7
2024-03-20T02:58:24.177Z,3.7
2024-03-20T02:59:40.507Z,3.7
2024-03-20T03:00:56.770Z,3.7
2024-03-20T03:02:12.087Z,3.7
2024-03-20T03:03:28.380Z,3.7
2024-03-20T03:04:44.704Z,3.7
2024-03-20T03:06:00.966Z,3.6
2024-03-20T03:07:17.270Z,3.6
2024-03-20T03:08:33.558Z,3.6
2024-03-20T03:09:49.853Z,3.6
2024-03-20T03:11:06.140Z,3.6
2024-03-20T03:12:22.471Z,3.6
2024-03-20T03:13:38.729Z,3.6
2024-03-20T03:14:55.062Z,3.6
2024-03-20T03:16:11.354Z,3.6
2024-03-20T03:17:27.639Z,3.5
2024-03-20T03:18:42.955Z,3.6
2024-03-20T03:19:59.255Z,3.6
2024-03-20T03:21:15.546Z,3.5
2024-03-20T03:22:31.813Z,3.5
2024-03-20T03:23:48.129Z,3.5
2024-03-20T03:25:04.401Z,3.5
2024-03-20T03:26:20.736Z,3.5
2024-03-20T03:27:37.019Z,3.5
2024-03-20T03:28:53.281Z,3.6
2024-03-20T03:30:09.603Z,3.6
2024-03-20T03:31:25.868Z,3.6
2024-03-20T03:32:42.166Z,3.7
2024-03-20T03:33:58.463Z,3.7
2024-03-20T03:35:13.778Z,3.7
2024-03-20T03:36:30.062Z,3.8
2024-03-20T03:37:46.370Z,3.8
2024-03-20T03:39:02.654Z,3.8
2024-03-20T03:40:18.950Z,3.8
2024-03-20T03:41:35.252Z,3.8
2024-03-20T03:42:50.596Z,3.8
2024-03-20T03:44:06.872Z,3.8
2024-03-20T03:45:23.149Z,3.8
2024-03-20T03:46:39.450Z,3.8
2024-03-20T03:47:55.775Z,3.8
2024-03-20T03:49:12.064Z,3.8
2024-03-20T03:50:28.328Z,3.8
2024-03-20T03:51:44.622Z,3.8
2024-03-20T03:53:00.914Z,3.8
2024-03-20T03:54:17.215Z,3.8
2024-03-20T03:55:33.539Z,3.8
2024-03-20T03:56:49.804Z,3.8
2024-03-20T03:58:06.124Z,3.8
2024-03-20T03:59:21.418Z,3.7
2024-03-20T04:00:37.714Z,3.8
2024-03-20T04:01:54.003Z,3.7
2024-03-20T04:03:10.297Z,3.7
2024-03-20T04:04:26.601Z,3.7
2024-03-20T04:05:42.883Z,3.6
2024-03-20T04:06:59.202Z,3.6
2024-03-20T04:08:15.501Z,3.6
2024-03-20T04:09:31.775Z,3.5
2024-03-20T04:10:48.064Z,3.5
2024-03-20T04:12:04.392Z,3.5
2024-03-20T04:13:20.677Z,3.4
2024-03-20T04:14:36.943Z,3.4
2024-03-20T04:15:52.270Z,3.4
2024-03-20T04:17:08.561Z,3.4
2024-03-20T04:18:24.856Z,3.4
2024-03-20T04:19:41.136Z,3.4
2024-03-20T04:20:57.459Z,3.4
2024-03-20T04:22:13.741Z,3.4
2024-03-20T04:23:30.019Z,3.4
2024-03-20T04:24:46.319Z,3.3
2024-03-20T04:27:18.947Z,3.3
2024-03-20T04:28:35.203Z,3.3
2024-03-20T04:29:51.506Z,3.3
2024-03-20T04:31:07.794Z,3.2
2024-03-20T04:32:23.127Z,3.2
2024-03-20T04:33:39.393Z,3.2
2024-03-20T04:34:55.703Z,3.2
2024-03-20T04:36:11.968Z,3.3
2024-03-20T04:37:28.223Z,3.3
2024-03-20T04:38:44.520Z,3.3
2024-03-20T04:40:00.774Z,3.4
2024-03-20T04:41:17.028Z,3.4
2024-03-20T04:42:33.316Z,3.4
2024-03-20T04:43:49.588Z,3.4
2024-03-20T04:45:05.830Z,3.4
2024-03-20T04:46:22.103Z,3.4
2024-03-20T04:47:38.384Z,3.4
2024-03-20T04:48:53.617Z,3.5
2024-03-20T04:50:09.853Z,3.5
2024-03-20T04:51:26.083Z,3.5
2024-03-20T04:52:42.358Z,3.5
2024-03-20T04:53:58.596Z,3.5
2024-03-20T04:55:14.842Z,3.6
2024-03-20T04:56:31.052Z,3.6
2024-03-20T04:57:47.289Z,3.6
2024-03-20T04:59:03.542Z,3.6
2024-03-20T05:00:19.778Z,3.6
2024-03-20T05:01:36.018Z,3.6
2024-03-20T05:02:52.250Z,3.5
2024-03-20T05:04:08.495Z,3.5
2024-03-20T05:05:23.748Z,3.5
2024-03-20T05:06:39.990Z,3.5
2024-03-20T05:07:56.230Z,3.4
2024-03-20T05:09:12.473Z,3.4
2024-03-20T05:10:28.712Z,3.3
2024-03-20T05:11:44.958Z,3.3
2024-03-20T05:13:01.233Z,3.3
2024-03-20T05:14:17.451Z,3.3
2024-03-20T05:15:33.682Z,3.3
2024-03-20T05:16:49.949Z,3.3
2024-03-20T05:18:06.171Z,3.3
2024-03-20T05:19:22.403Z,3.3
2024-03-20T05:20:38.636Z,3.3
2024-03-20T05:21:53.930Z,3.3
2024-03-20T05:23:10.164Z,3.2
2024-03-20T05:24:26.410Z,3.2
2024-03-20T05:25:42.624Z,3.2
2024-03-20T05:26:58.886Z,3.2
2024-03-20T05:28:15.137Z,3.2
2024-03-20T05:29:31.371Z,3.2
2024-03-20T05:30:47.586Z,3.2
2024-03-20T05:32:03.831Z,3.3
2024-03-20T05:33:20.069Z,3.3
2024-03-20T05:34:36.316Z,3.4
2024-03-20T05:35:52.577Z,3.4
2024-03-20T05:37:08.781Z,3.5
2024-03-20T05:38:24.051Z,3.5
2024-03-20T05:39:40.319Z,3.5
2024-03-20T05:40:56.520Z,3.5
2024-03-20T05:42:12.761Z,3.6
2024-03-20T05:43:29.043Z,3.6
2024-03-20T05:44:45.247Z,3.6
2024-03-20T05:46:01.515Z,3.6
2024-03-20T05:47:17.758Z,3.6
2024-03-20T05:48:33.970Z,3.6
2024-03-20T05:49:50.254Z,3.7
2024-03-20T05:51:06.453Z,3.7
2024-03-20T05:52:22.723Z,3.8
2024-03-20T05:53:38.929Z,3.9
2024-03-20T05:54:54.183Z,4
2024-03-20T05:56:10.441Z,4.1
2024-03-20T05:57:26.680Z,4.2
2024-03-20T05:58:42.920Z,4.3
2024-03-20T05:59:59.150Z,4.4
2024-03-20T06:01:15.392Z,4.5
2024-03-20T06:02:31.666Z,4.7
2024-03-20T06:03:47.908Z,4.8
2024-03-20T06:05:04.114Z,5
2024-03-20T06:06:20.394Z,5
2024-03-20T06:07:36.621Z,5
2024-03-20T06:08:52.864Z,5
2024-03-20T06:10:09.076Z,5.1
2024-03-20T06:11:24.332Z,5.2
2024-03-20T06:12:40.571Z,5.2
2024-03-20T06:13:56.842Z,5.3
2024-03-20T06:15:13.059Z,5.4
2024-03-20T06:16:29.294Z,5.5
2024-03-20T06:17:45.574Z,5.6
2024-03-20T06:19:01.773Z,5.6
2024-03-20T06:20:18.026Z,5.6
2024-03-20T06:21:34.260Z,5.8
2024-03-20T06:22:50.532Z,5.8
2024-03-20T06:24:06.735Z,5.9
2024-03-20T06:25:22.976Z,5.9
2024-03-20T06:26:39.251Z,5.9
2024-03-20T06:27:54.481Z,5.8
2024-03-20T06:29:10.717Z,5.8
2024-03-20T06:30:26.953Z,5.8
2024-03-20T06:31:43.212Z,5.9
2024-03-20T06:32:59.432Z,5.9
2024-03-20T06:34:15.683Z,6
2024-03-20T06:35:31.914Z,6
2024-03-20T06:36:48.156Z,6.1
2024-03-20T06:38:04.436Z,6.3
2024-03-20T06:39:20.643Z,6.2
2024-03-20T06:40:36.923Z,6.2
2024-03-20T06:41:53.135Z,6.2
2024-03-20T06:43:09.374Z,6.4
2024-03-20T06:44:24.650Z,6.4
2024-03-20T06:45:40.857Z,6.5
2024-03-20T06:46:57.096Z,6.5
2024-03-20T06:48:13.381Z,6.7
2024-03-20T06:49:29.616Z,6.9
2024-03-20T06:50:45.826Z,7.1
2024-03-20T06:52:02.062Z,7.3
2024-03-20T06:53:18.294Z,7.5
2024-03-20T06:54:34.537Z,7.7
2024-03-20T06:55:50.780Z,7.9
2024-03-20T06:57:07.053Z,8
2024-03-20T06:58:23.268Z,8.1
2024-03-20T06:59:39.510Z,8.2
2024-03-20T07:00:54.763Z,8.4
2024-03-20T07:02:11.005Z,8.4
2024-03-20T07:03:27.267Z,8.5
2024-03-20T07:04:43.487Z,8.6
2024-03-20T07:05:59.722Z,8.7
2024-03-20T07:07:15.967Z,8.8
2024-03-20T07:08:32.214Z,9
2024-03-20T07:09:48.477Z,9.3
2024-03-20T07:11:04.690Z,9.4
2024-03-20T07:12:20.918Z,9.5
2024-03-20T07:13:37.190Z,9.7
2024-03-20T07:14:53.440Z,9.7
2024-03-20T07:16:09.680Z,9.8
2024-03-20T07:17:24.933Z,9.9
2024-03-20T07:18:41.145Z,9.8
2024-03-20T07:19:57.377Z,9.8
2024-03-20T07:21:13.656Z,9.7
2024-03-20T07:22:29.901Z,9.7
2024-03-20T07:23:46.110Z,9.8
2024-03-20T07:25:02.339Z,9.9
2024-03-20T07:26:18.607Z,10
2024-03-20T07:27:34.853Z,10
2024-03-20T07:28:51.087Z,10.1
2024-03-20T07:30:07.325Z,10.2
2024-03-20T07:31:23.533Z,10.3
2024-03-20T07:32:39.808Z,10.6
2024-03-20T07:33:55.030Z,10.6
2024-03-20T07:35:11.271Z,10.7
2024-03-20T07:36:27.509Z,10.7
2024-03-20T07:37:43.787Z,10.9
2024-03-20T07:39:00.022Z,10.7
2024-03-20T07:40:16.265Z,10.8
2024-03-20T07:41:32.475Z,11
2024-03-20T07:42:48.709Z,11.3
2024-03-20T07:44:04.948Z,11.4
2024-03-20T07:45:21.222Z,11.5
2024-03-20T07:46:37.467Z,11.2
2024-03-20T07:47:53.704Z,11.2
2024-03-20T07:49:09.910Z,11.5
2024-03-20T07:50:25.164Z,11.6
2024-03-20T07:51:41.000Z,11.7
2024-03-20T07:52:57.648Z,11.9
2024-03-20T07:54:13.887Z,11.9
2024-03-20T07:55:30.136Z,11.9
2024-03-20T07:56:46.363Z,12
2024-03-20T07:58:01.635Z,12.3
2024-03-20T07:59:17.873Z,12.6
2024-03-20T08:00:34.140Z,12.7
2024-03-20T08:01:50.380Z,12.8
2024-03-20T08:03:06.623Z,13
2024-03-20T08:04:22.823Z,12.9
2024-03-20T08:05:39.100Z,12.6
2024-03-20T08:06:55.340Z,12.3
2024-03-20T08:08:11.583Z,12.1
2024-03-20T08:09:27.822Z,12.1
2024-03-20T08:10:44.022Z,12.1
2024-03-20T08:12:00.300Z,12.2
2024-03-20T08:13:16.515Z,12.3
2024-03-20T08:14:31.767Z,12.3
2024-03-20T08:15:48.043Z,12.4
2024-03-20T08:17:04.244Z,12.5
2024-03-20T08:18:20.480Z,12.8
2024-03-20T08:19:36.720Z,13.1
2024-03-20T08:20:52.965Z,13.4
2024-03-20T08:22:09.200Z,13.6
2024-03-20T08:23:25.487Z,13.7
2024-03-20T08:24:41.679Z,14
2024-03-20T08:25:57.920Z,14.2
2024-03-20T08:27:14.163Z,14.2
2024-03-20T08:28:30.403Z,14.4
2024-03-20T08:29:46.639Z,14.6
2024-03-20T08:31:01.941Z,14.7
2024-03-20T08:32:18.172Z,14.7
2024-03-20T08:33:34.377Z,14.8
2024-03-20T08:34:50.614Z,15
2024-03-20T08:36:06.895Z,15.3
2024-03-20T08:37:23.105Z,15.4
2024-03-20T08:38:39.341Z,15.6
2024-03-20T08:39:55.617Z,15.2
2024-03-20T08:41:11.814Z,15.1
2024-03-20T08:42:28.093Z,15.2
2024-03-20T08:43:44.308Z,15.3
2024-03-20T08:45:00.533Z,15.3
2024-03-20T08:46:16.783Z,15.1
2024-03-20T08:47:32.030Z,15.2
2024-03-20T08:48:48.317Z,15.2
2024-03-20T08:50:04.520Z,15.2
2024-03-20T08:51:20.791Z,15.2
2024-03-20T08:52:37.003Z,15.4
2024-03-20T08:53:53.237Z,15.5
2024-03-20T08:55:09.509Z,15.8
2024-03-20T08:56:25.752Z,16.2
2024-03-20T08:57:41.996Z,16.7
2024-03-20T08:58:58.237Z,17
2024-03-20T09:00:14.432Z,17.2
2024-03-20T09:01:30.676Z,17
2024-03-20T09:02:46.917Z,16.5
2024-03-20T09:04:02.182Z,16.4
2024-03-20T09:05:18.446Z,16.3
2024-03-20T09:06:34.663Z,16
2024-03-20T09:07:50.899Z,16
2024-03-20T09:09:07.169Z,16.1
2024-03-20T09:10:23.410Z,16
2024-03-20T09:11:39.652Z,15.9
2024-03-20T09:12:55.858Z,16
2024-03-20T09:14:12.099Z,16
2024-03-20T09:15:28.345Z,16
2024-03-20T09:16:44.581Z,15.8
2024-03-20T09:18:00.816Z,15.5
2024-03-20T09:19:17.053Z,15.4
2024-03-20T09:20:32.349Z,15.3
2024-03-20T09:21:48.597Z,15.3
2024-03-20T09:23:04.832Z,15.1
2024-03-20T09:24:21.083Z,14.9
2024-03-20T09:25:37.312Z,14.8
2024-03-20T09:26:53.547Z,14.9
2024-03-20T09:28:09.766Z,14.9
2024-03-20T09:29:26.026Z,15
2024-03-20T09:30:42.229Z,14.7
2024-03-20T09:31:58.516Z,14.7
2024-03-20T09:33:14.748Z,14.7
2024-03-20T09:34:30.956Z,14.7
2024-03-20T09:35:47.186Z,14.6
2024-03-20T09:37:02.493Z,14.6
2024-03-20T09:38:18.682Z,14.8
2024-03-20T09:39:34.977Z,14.9
2024-03-20T09:40:51.205Z,14.9
2024-03-20T09:42:07.407Z,14.8
2024-03-20T09:43:23.649Z,14.8
2024-03-20T09:44:39.894Z,14.9
2024-03-20T09:45:56.128Z,15.1
2024-03-20T09:47:12.404Z,15
2024-03-20T09:48:28.600Z,15.1
2024-03-20T09:49:44.881Z,15.5
2024-03-20T09:51:01.083Z,15.7
2024-03-20T09:52:17.322Z,16
2024-03-20T09:53:32.591Z,15.9
2024-03-20T09:54:48.872Z,16
2024-03-20T09:56:05.062Z,16.3
2024-03-20T09:57:21.307Z,16.5
2024-03-20T09:58:37.536Z,16.7
2024-03-20T09:59:53.824Z,16.8
2024-03-20T10:02:26.293Z,16.8
2024-03-20T10:03:42.538Z,16.6
2024-03-20T10:04:58.779Z,16.8
2024-03-20T10:06:15.004Z,17.1
2024-03-20T10:07:31.254Z,17.2
2024-03-20T10:08:47.493Z,17.3
2024-03-20T10:10:02.758Z,17.1
2024-03-20T10:11:18.978Z,17
2024-03-20T10:12:35.234Z,17.1
2024-03-20T10:13:51.000Z,17.3
2024-03-20T10:15:07.732Z,17.4
2024-03-20T10:16:23.949Z,17.4
2024-03-20T10:17:40.194Z,17.6
2024-03-20T10:18:56.435Z,17.9
2024-03-20T10:20:12.676Z,18
2024-03-20T10:21:28.904Z,18.2
2024-03-20T10:22:45.144Z,18.4
2024-03-20T10:24:01.387Z,18.5
2024-03-20T10:25:17.622Z,18.8
2024-03-20T10:26:32.896Z,18.8
2024-03-20T10:27:49.116Z,18.9
2024-03-20T10:29:05.375Z,19.1
2024-03-20T10:30:21.621Z,19.3
2024-03-20T10:31:37.852Z,19.2
2024-03-20T10:32:54.087Z,19.2
2024-03-20T10:34:10.318Z,19.4
2024-03-20T10:35:26.559Z,19.4
2024-03-20T10:36:42.826Z,19.3
2024-03-20T10:37:59.038Z,19.2
2024-03-20T10:39:15.280Z,19.1
2024-03-20T10:40:31.526Z,18.8
2024-03-20T10:41:47.772Z,18.4
2024-03-20T10:43:03.032Z,18.4
2024-03-20T10:44:19.267Z,18.7
2024-03-20T10:45:35.504Z,18.9
2024-03-20T10:46:51.750Z,18.7
2024-03-20T10:48:07.989Z,18.6
2024-03-20T10:49:24.238Z,18.3
2024-03-20T10:50:40.458Z,17.9
2024-03-20T10:51:56.711Z,17.6
2024-03-20T10:53:12.953Z,17.6
2024-03-20T10:54:29.182Z,17.6
2024-03-20T10:55:45.452Z,17.7
2024-03-20T10:57:01.000Z,18
2024-03-20T10:58:17.912Z,18.4
2024-03-20T10:59:33.154Z,18.9
2024-03-20T11:00:49.427Z,19.3
2024-03-20T11:02:05.639Z,19.3
2024-03-20T11:03:21.890Z,19
2024-03-20T11:04:38.112Z,19
2024-03-20T11:05:54.368Z,19.2
2024-03-20T11:07:10.605Z,18.8
2024-03-20T11:08:26.843Z,18.5
2024-03-20T11:09:43.081Z,18.5
2024-03-20T11:10:59.321Z,18.4
2024-03-20T11:12:15.567Z,18.5
2024-03-20T11:13:31.808Z,18.5
2024-03-20T11:14:48.062Z,18.5
2024-03-20T11:16:03.306Z,18.8
2024-03-20T11:17:19.530Z,19.1
2024-03-20T11:18:35.769Z,19.3
2024-03-20T11:19:52.037Z,19.6
2024-03-20T11:21:08.279Z,19.8
2024-03-20T11:22:24.497Z,20
2024-03-20T11:23:40.746Z,20
2024-03-20T11:24:56.988Z,20.1
2024-03-20T11:26:13.216Z,19.8
2024-03-20T11:27:29.481Z,19.6
2024-03-20T11:28:45.713Z,19.4
2024-03-20T11:30:01.938Z,19.5
2024-03-20T11:31:18.208Z,19.6
2024-03-20T11:32:33.428Z,19.6
2024-03-20T11:33:49.690Z,19.6
2024-03-20T11:35:05.915Z,19.7
2024-03-20T11:36:22.179Z,19.7
2024-03-20T11:37:38.401Z,19.8
2024-03-20T11:38:54.646Z,19.9
2024-03-20T11:40:10.879Z,20
2024-03-20T11:41:27.132Z,20
2024-03-20T11:42:43.370Z,20
2024-03-20T11:43:59.603Z,19.9
2024-03-20T11:45:15.829Z,20.1
2024-03-20T11:46:32.085Z,20.2
2024-03-20T11:47:48.312Z,20.3
2024-03-20T11:49:03.580Z,20.2
2024-03-20T11:50:19.824Z,20.2
2024-03-20T11:51:36.049Z,20.3
2024-03-20T11:52:52.289Z,20.4
2024-03-20T11:54:08.554Z,20.5
2024-03-20T11:55:24.773Z,20.6
2024-03-20T11:56:41.009Z,20.6
2024-03-20T11:57:57.244Z,20.6
2024-03-20T11:59:13.489Z,20.6
2024-03-20T12:00:29.727Z,20.6
2024-03-20T12:01:45.982Z,19.9
2024-03-20T12:03:02.212Z,19.6
2024-03-20T12:04:18.448Z,19.5
2024-03-20T12:05:33.723Z,19.6
2024-03-20T12:06:49.970Z,19.5
2024-03-20T12:08:06.203Z,19.5
2024-03-20T12:09:22.450Z,19.3
2024-03-20T12:10:38.673Z,19.2
2024-03-20T12:11:54.925Z,19.3
2024-03-20T12:13:10.193Z,19.4
2024-03-20T12:14:26.407Z,19.2
2024-03-20T12:15:42.653Z,19.2
2024-03-20T12:16:58.885Z,19.3
2024-03-20T12:18:15.156Z,19.5
2024-03-20T12:19:31.366Z,19.5
2024-03-20T12:20:47.639Z,19.3
2024-03-20T12:22:03.850Z,19.4
2024-03-20T12:23:20.124Z,19.5
2024-03-20T12:24:36.352Z,19.6
2024-03-20T12:25:52.577Z,19.7
2024-03-20T12:27:08.819Z,19.8
2024-03-20T12:28:25.082Z,19.8
2024-03-20T12:29:40.323Z,19.9
2024-03-20T12:30:56.559Z,19.9
2024-03-20T12:32:12.807Z,20
2024-03-20T12:33:29.023Z,20.1
2024-03-20T12:34:45.294Z,20.2
2024-03-20T12:36:01.501Z,20.3
2024-03-20T12:37:17.751Z,20.3
2024-03-20T12:38:33.987Z,20.3
2024-03-20T12:39:50.252Z,20.3
2024-03-20T12:41:06.477Z,20.3
2024-03-20T12:42:22.714Z,20.3
2024-03-20T12:43:38.965Z,20.4
2024-03-20T12:44:55.215Z,20.4
2024-03-20T12:46:10.438Z,20.2
2024-03-20T12:47:26.707Z,20.1
2024-03-20T12:48:42.954Z,20
2024-03-20T12:49:59.174Z,20
2024-03-20T12:51:15.408Z,19.9
2024-03-20T12:52:31.648Z,19.9
2024-03-20T12:53:47.912Z,19.8
2024-03-20T12:55:04.129Z,19.8
2024-03-20T12:56:20.387Z,19.8
2024-03-20T12:57:36.633Z,19.7
2024-03-20T12:58:52.875Z,19.7
2024-03-20T13:00:09.079Z,19.7
2024-03-20T13:01:25.354Z,19.6
2024-03-20T13:02:40.573Z,19.7
2024-03-20T13:03:56.833Z,19.7
2024-03-20T13:05:13.088Z,19.8
2024-03-20T13:06:29.293Z,19.9
2024-03-20T13:07:45.541Z,20
2024-03-20T13:09:01.803Z,20
2024-03-20T13:10:18.023Z,19.9
2024-03-20T13:11:34.266Z,19.9
2024-03-20T13:12:50.520Z,20
2024-03-20T13:14:06.766Z,20
2024-03-20T13:15:22.974Z,19.9
2024-03-20T13:16:39.227Z,19.9
2024-03-20T13:17:55.458Z,19.7
2024-03-20T13:19:10.724Z,19.5
2024-03-20T13:20:26.952Z,19.6
2024-03-20T13:21:43.221Z,19.6
2024-03-20T13:22:59.438Z,19.8
2024-03-20T13:24:15.706Z,19.8
2024-03-20T13:25:31.908Z,19.9
2024-03-20T13:26:48.154Z,20
2024-03-20T13:28:04.416Z,20.1
2024-03-20T13:29:20.663Z,20.2
2024-03-20T13:30:36.894Z,20.3
2024-03-20T13:31:53.122Z,20.4
2024-03-20T13:33:09.363Z,20.3
2024-03-20T13:34:25.598Z,20.4
2024-03-20T13:35:40.885Z,20.4
2024-03-20T13:36:57.093Z,20.5
2024-03-20T13:38:13.332Z,20.5
2024-03-20T13:39:29.577Z,20.4
2024-03-20T13:40:45.821Z,20.4
2024-03-20T13:42:02.047Z,20.3
2024-03-20T13:43:18.300Z,20.3
2024-03-20T13:44:34.533Z,20.2
2024-03-20T13:45:50.777Z,20
2024-03-20T13:47:07.018Z,19.9
2024-03-20T13:48:23.273Z,19.8
2024-03-20T13:50:55.764Z,19.6
2024-03-20T13:52:10.993Z,19.4
2024-03-20T13:53:27.261Z,19.2
2024-03-20T13:54:43.473Z,19.2
2024-03-20T13:55:59.701Z,19.2
2024-03-20T13:57:15.950Z,19.2
2024-03-20T13:58:32.185Z,19.3
2024-03-20T13:59:48.421Z,19.2
2024-03-20T14:01:04.685Z,19.1
2024-03-20T14:02:20.913Z,19.1
2024-03-20T14:03:37.139Z,19
2024-03-20T14:04:53.397Z,19
2024-03-20T14:06:09.626Z,19
2024-03-20T14:07:25.874Z,19
2024-03-20T14:08:42.247Z,19
2024-03-20T14:09:58.477Z,19.1
2024-03-20T14:11:14.745Z,19
2024-03-20T14:12:30.951Z,18.9
2024-03-20T14:13:47.207Z,18.9
2024-03-20T14:15:03.421Z,18.8
2024-03-20T14:16:19.704Z,18.7
2024-03-20T14:17:35.919Z,18.6
2024-03-20T14:18:52.140Z,18.6
2024-03-20T14:20:08.399Z,18.6
2024-03-20T14:21:24.631Z,18.7
2024-03-20T14:22:40.889Z,18.8
2024-03-20T14:23:57.110Z,18.8
2024-03-20T14:25:12.370Z,18.8
2024-03-20T14:26:28.637Z,18.8
2024-03-20T14:27:44.854Z,18.8
2024-03-20T14:29:01.091Z,18.8
2024-03-20T14:30:17.323Z,18.7
2024-03-20T14:31:33.577Z,18.6
2024-03-20T14:32:49.798Z,18.6
2024-03-20T14:34:06.044Z,18.5
2024-03-20T14:36:38.529Z,18.4
2024-03-20T14:37:54.767Z,18.4
2024-03-20T14:39:11.000Z,18.3
2024-03-20T14:40:27.238Z,18.2
2024-03-20T14:41:42.509Z,18.2
2024-03-20T14:44:15.003Z,18.3
2024-03-20T14:45:31.249Z,18.2
2024-03-20T14:46:47.462Z,18.1
2024-03-20T14:48:03.696Z,18.1
2024-03-20T14:49:19.942Z,18.2
2024-03-20T14:50:36.173Z,18.1
2024-03-20T14:51:52.416Z,18.1
2024-03-20T14:53:08.692Z,18.1
2024-03-20T14:54:24.897Z,18
2024-03-20T14:55:41.149Z,17.9
2024-03-20T14:56:57.370Z,18
2024-03-20T14:58:12.645Z,18
2024-03-20T14:59:28.912Z,18
2024-03-20T15:00:45.150Z,17.9
2024-03-20T15:02:01.365Z,17.9
2024-03-20T15:03:17.599Z,17.9
2024-03-20T15:04:33.828Z,17.8
2024-03-20T15:05:50.076Z,17.8
2024-03-20T15:07:06.343Z,17.8
2024-03-20T15:08:22.584Z,17.8
2024-03-20T15:09:38.823Z,17.8
2024-03-20T15:10:55.030Z,17.7
2024-03-20T15:12:11.269Z,17.7
2024-03-20T15:13:27.525Z,17.7
2024-03-20T15:14:42.779Z,17.7
2024-03-20T15:15:59.005Z,17.6
2024-03-20T15:17:15.256Z,17.6
2024-03-20T15:18:31.491Z,17.5
2024-03-20T15:19:47.734Z,17.4
2024-03-20T15:21:03.973Z,17.4
2024-03-20T15:22:20.218Z,17.4
2024-03-20T15:23:36.456Z,17.4
2024-03-20T15:24:52.718Z,17.4
2024-03-20T15:26:08.921Z,17.4
2024-03-20T15:27:25.171Z,17.4
2024-03-20T15:28:41.436Z,17.4
2024-03-20T15:29:57.649Z,17.4
2024-03-20T15:31:12.908Z,17.3
2024-03-20T15:32:29.176Z,17.3
2024-03-20T15:33:45.384Z,17.3
2024-03-20T15:35:01.655Z,17.3
2024-03-20T15:36:17.889Z,17.2
2024-03-20T15:37:34.105Z,17.2
2024-03-20T15:38:50.336Z,17.2
2024-03-20T15:40:06.577Z,17.2
2024-03-20T15:41:22.824Z,17.2
2024-03-20T15:42:39.060Z,17.2
2024-03-20T15:43:55.313Z,17.1
2024-03-20T15:45:11.585Z,17.2
2024-03-20T15:46:27.824Z,17.1
2024-03-20T15:47:43.035Z,17
2024-03-20T15:48:59.274Z,17
2024-03-20T15:50:15.527Z,16.9
2024-03-20T15:51:31.765Z,16.9
2024-03-20T15:52:48.011Z,16.9
2024-03-20T15:54:04.243Z,16.9
2024-03-20T15:55:20.506Z,16.9
2024-03-20T15:56:36.731Z,16.8
2024-03-20T15:57:52.964Z,16.8
2024-03-20T15:59:09.190Z,16.8
2024-03-20T16:00:25.438Z,16.8
2024-03-20T16:01:41.671Z,16.7
2024-03-20T16:02:57.954Z,16.7
2024-03-20T16:04:13.185Z,16.7
2024-03-20T16:05:29.418Z,16.7
2024-03-20T16:06:45.651Z,16.7
2024-03-20T16:08:01.900Z,16.6
2024-03-20T16:09:18.126Z,16.6
2024-03-20T16:10:34.369Z,16.6
2024-03-20T16:11:50.619Z,16.5
2024-03-20T16:13:06.853Z,16.5
2024-03-20T16:14:23.103Z,16.5
2024-03-20T16:15:39.363Z,16.4
2024-03-20T16:16:55.575Z,16.4
2024-03-20T16:18:11.810Z,16.3
2024-03-20T16:19:28.063Z,16.3
2024-03-20T16:20:43.304Z,16.3
2024-03-20T16:21:59.547Z,16.3
2024-03-20T16:23:15.793Z,16.3
2024-03-20T16:24:32.034Z,16.2
2024-03-20T16:25:48.263Z,16.2
2024-03-20T16:27:04.523Z,16.2
2024-03-20T16:28:19.780Z,16.2
2024-03-20T16:30:52.250Z,16.1
2024-03-20T16:33:24.724Z,16.1
2024-03-20T16:34:40.969Z,16.1
2024-03-20T16:35:57.221Z,16
2024-03-20T16:37:13.448Z,16
2024-03-20T16:38:29.699Z,15.9
2024-03-20T16:39:45.932Z,15.9
2024-03-20T16:41:02.164Z,15.9
2024-03-20T16:42:18.421Z,15.8
2024-03-20T16:43:34.663Z,15.8
2024-03-20T16:44:49.902Z,15.7
2024-03-20T16:46:06.157Z,15.6
2024-03-20T16:47:22.382Z,15.5
2024-03-20T16:48:38.624Z,15.5
2024-03-20T16:49:54.880Z,15.4
2024-03-20T16:51:11.120Z,15.3
2024-03-20T16:52:27.357Z,15.3
2024-03-20T16:53:43.588Z,15.2
2024-03-20T16:54:59.834Z,15.2
2024-03-20T16:56:16.080Z,15.1
2024-03-20T16:57:32.310Z,15
2024-03-20T16:58:48.545Z,15
2024-03-20T17:00:04.791Z,14.9
2024-03-20T17:01:20.058Z,14.9
2024-03-20T17:02:36.298Z,14.8
2024-03-20T17:03:52.536Z,14.8
2024-03-20T17:05:08.775Z,14.7
2024-03-20T17:06:24.998Z,14.6
2024-03-20T17:07:41.243Z,14.6
2024-03-20T17:08:57.492Z,14.5
2024-03-20T17:10:13.724Z,14.5
2024-03-20T17:11:29.975Z,14.4
2024-03-20T17:12:46.212Z,14.3
2024-03-20T17:14:02.442Z,14.3
2024-03-20T17:15:18.695Z,14.2
2024-03-20T17:16:34.934Z,14.2
2024-03-20T17:17:50.190Z,14.1
2024-03-20T17:19:06.427Z,14.1
2024-03-20T17:20:22.658Z,14
2024-03-20T17:21:38.904Z,14
2024-03-20T17:22:55.139Z,13.9
2024-03-20T17:24:11.384Z,13.9